Time;durP1;ratioP1;P1;durP2;ratioP2;P2;SDS_P1;SDS_P2;PMS_P1;PMS_P2;Temp;Humidity;BMP_temperature;BMP_pressure;BME280_temperature;BME280_humidity;BME280_pressure;Samples;Min_cycle;Max_cycle;Signal;HPM_P1;HPM_P2
2021/12/11 00:01:10;;;;;;;75.43;34.53;;;;;;;-6.43;82.20;99064.36;2078448;83;22027;-71
2021/12/11 00:04:16;;;;;;;81.02;38.05;;;;;;;-6.42;82.40;99073.79;2097631;83;21172;-72
2021/12/11 00:07:20;;;;;;;70.80;32.60;;;;;;;-6.38;82.43;99078.31;2087801;83;21087;-80
2021/12/11 00:10:36;;;;;;;91.13;40.90;;;;;;;-6.29;82.38;99080.84;2082616;83;21559;-73
2021/12/11 00:13:40;;;;;;;83.77;35.17;;;;;;;-6.25;82.16;99074.58;2088140;83;21563;-76
2021/12/11 00:16:42;;;;;;;88.50;39.07;;;;;;;-6.46;81.20;99086.94;2081820;83;21152;-71
2021/12/11 00:19:46;;;;;;;78.00;34.73;;;;;;;-6.68;81.57;99085.98;2084700;82;21001;-71
2021/12/11 00:22:49;;;;;;;85.83;36.40;;;;;;;-6.69;82.15;99078.71;2081259;82;21063;-71
2021/12/11 00:25:50;;;;;;;79.03;34.47;;;;;;;-6.68;82.24;99079.53;2086970;82;21543;-76
2021/12/11 00:28:52;;;;;;;84.07;36.37;;;;;;;-6.65;82.44;99080.66;2071559;83;21577;-82
2021/12/11 00:32:08;;;;;;;79.30;35.10;;;;;;;-6.59;82.53;99079.88;2087617;82;21393;-74
2021/12/11 00:35:20;;;;;;;83.37;36.00;;;;;;;-6.44;82.53;99086.41;2093087;83;20997;-72
2021/12/11 00:38:36;;;;;;;84.23;35.87;;;;;;;-6.39;82.30;99092.98;2081011;83;21021;-71
2021/12/11 00:41:36;;;;;;;79.73;34.53;;;;;;;-6.41;81.84;99091.40;2080192;83;21070;-75
2021/12/11 00:44:45;;;;;;;86.27;36.43;;;;;;;-6.45;81.76;99104.08;2087898;83;21108;-71
2021/12/11 00:47:52;;;;;;;88.33;38.50;;;;;;;-6.39;81.96;99103.30;2068027;83;21518;-73
2021/12/11 00:51:05;;;;;;;79.27;35.33;;;;;;;-6.29;82.05;99109.24;2096070;82;21068;-72
2021/12/11 00:54:07;;;;;;;91.37;37.50;;;;;;;-6.18;81.92;99109.47;2091706;82;21113;-71
2021/12/11 00:57:14;;;;;;;84.77;37.87;;;;;;;-6.23;81.38;99129.09;2098619;83;21876;-72
2021/12/11 01:00:21;;;;;;;86.93;37.20;;;;;;;-6.39;81.30;99122.66;2092603;83;21035;-72
2021/12/11 01:03:28;;;;;;;90.60;38.40;;;;;;;-6.43;81.62;99132.77;2086672;83;21012;-72
2021/12/11 01:06:51;;;;;;;85.53;37.93;;;;;;;-6.48;81.50;99125.73;2087732;82;21120;-71
2021/12/11 01:10:07;;;;;;;77.07;36.33;;;;;;;-6.48;81.49;99143.80;2090148;83;21081;-71
2021/12/11 01:13:11;;;;;;;85.23;36.67;;;;;;;-6.64;81.19;99144.27;2084748;83;21065;-70
2021/12/11 01:16:15;;;;;;;76.03;34.70;;;;;;;-6.73;80.95;99153.77;2094273;83;20995;-72
2021/12/11 01:19:19;;;;;;;82.27;36.40;;;;;;;-6.61;81.27;99169.45;2089062;82;21111;-78
2021/12/11 01:22:35;;;;;;;79.93;34.43;;;;;;;-6.47;81.62;99176.91;2102226;83;21721;-79
2021/12/11 01:25:37;;;;;;;83.83;35.03;;;;;;;-6.40;81.37;99167.91;2089339;83;21492;-69
2021/12/11 01:28:39;;;;;;;78.17;34.17;;;;;;;-6.45;80.66;99171.19;2086455;83;21068;-73
2021/12/11 01:31:41;;;;;;;94.67;41.67;;;;;;;-6.48;80.52;99168.78;2083212;82;21084;-75
2021/12/11 01:34:45;;;;;;;92.67;40.07;;;;;;;-6.65;80.89;99171.80;2092421;83;21679;-85
2021/12/11 01:37:49;;;;;;;104.30;40.83;;;;;;;-6.69;81.01;99174.64;2094818;82;21052;-72
2021/12/11 01:40:56;;;;;;;93.00;39.03;;;;;;;-6.70;80.90;99177.69;2096819;83;21131;-75
2021/12/11 01:44:03;;;;;;;80.57;33.83;;;;;;;-6.65;81.22;99180.00;2095007;82;21076;-72
2021/12/11 01:47:12;;;;;;;83.27;36.27;;;;;;;-6.69;80.82;99186.25;2082833;82;21064;-82
2021/12/11 01:50:25;;;;;;;92.80;39.17;;;;;;;-6.80;81.41;99177.31;2088007;82;21049;-75
2021/12/11 01:53:32;;;;;;;81.03;37.40;;;;;;;-6.61;81.84;99184.93;2090338;83;21048;-85
2021/12/11 01:56:34;;;;;;;75.83;34.80;;;;;;;-6.53;81.81;99181.95;2084748;82;21056;-74
2021/12/11 01:59:41;;;;;;;74.00;32.97;;;;;;;-6.47;81.81;99193.23;2091339;83;21480;-75
2021/12/11 02:02:50;;;;;;;71.10;31.43;;;;;;;-6.41;81.85;99195.48;2088142;83;21060;-72
2021/12/11 02:05:52;;;;;;;71.67;31.83;;;;;;;-6.35;81.86;99189.98;2086134;82;21013;-72
2021/12/11 02:08:55;;;;;;;79.20;38.03;;;;;;;-6.25;81.89;99195.50;2090752;82;21127;-75
2021/12/11 02:12:11;;;;;;;95.37;39.87;;;;;;;-6.16;82.02;99204.02;2097017;82;21060;-72
2021/12/11 02:15:18;;;;;;;79.23;33.50;;;;;;;-6.13;81.72;99208.19;2076222;83;21052;-73
2021/12/11 02:18:36;;;;;;;71.23;32.40;;;;;;;-6.23;81.58;99207.02;2082171;82;21085;-75
2021/12/11 02:21:57;;;;;;;71.57;31.73;;;;;;;-6.26;81.79;99208.47;2078474;82;21021;-72
2021/12/11 02:25:04;;;;;;;65.57;30.07;;;;;;;-6.35;81.85;99221.42;2086408;83;21055;-75
2021/12/11 02:28:20;;;;;;;68.33;30.13;;;;;;;-6.34;82.02;99217.45;2081922;83;21123;-74
2021/12/11 02:31:46;;;;;;;61.83;28.10;;;;;;;-6.31;82.12;99224.20;2091406;83;21135;-76
2021/12/11 02:34:53;;;;;;;64.77;29.77;;;;;;;-6.28;82.38;99225.79;2061766;83;21037;-73
2021/12/11 02:38:07;;;;;;;60.33;28.77;;;;;;;-6.25;82.61;99227.77;2098242;83;21135;-72
2021/12/11 02:41:20;;;;;;;69.70;28.83;;;;;;;-6.18;82.56;99220.05;2094726;82;21051;-74
2021/12/11 02:44:33;;;;;;;59.83;28.37;;;;;;;-6.14;82.41;99229.75;2088674;82;21099;-76
2021/12/11 02:47:43;;;;;;;61.60;30.70;;;;;;;-6.22;82.12;99224.16;2085223;82;21142;-76
2021/12/11 02:50:50;;;;;;;65.20;28.83;;;;;;;-6.23;82.01;99243.16;2091762;83;21104;-73
2021/12/11 02:54:17;;;;;;;63.10;29.23;;;;;;;-6.37;81.28;99233.11;2094063;83;21590;-86
2021/12/11 02:57:36;;;;;;;63.13;30.10;;;;;;;-6.68;81.00;99247.25;2084635;83;21056;-77
2021/12/11 03:00:52;;;;;;;72.00;29.97;;;;;;;-6.85;81.36;99242.50;2086886;82;21090;-74
2021/12/11 03:04:10;;;;;;;77.57;33.97;;;;;;;-6.78;81.69;99249.02;2085856;82;21063;-74
2021/12/11 03:07:12;;;;;;;80.23;32.57;;;;;;;-6.85;81.15;99249.41;2095942;83;21013;-74
2021/12/11 03:10:18;;;;;;;69.13;31.33;;;;;;;-7.00;80.95;99251.03;2090978;83;21087;-73
2021/12/11 03:13:26;;;;;;;75.87;31.17;;;;;;;-7.15;81.25;99255.65;2091932;82;21150;-73
2021/12/11 03:16:32;;;;;;;69.03;29.37;;;;;;;-7.39;80.77;99263.69;2053928;83;21788;-75
2021/12/11 03:19:37;;;;;;;66.37;28.07;;;;;;;-7.43;81.40;99266.05;2087597;83;21509;-73
2021/12/11 03:22:40;;;;;;;67.80;30.10;;;;;;;-7.35;81.78;99276.80;2092905;83;21591;-75
2021/12/11 03:25:44;;;;;;;77.60;33.00;;;;;;;-7.19;82.07;99279.47;2071863;83;21064;-74
2021/12/11 03:28:46;;;;;;;80.30;32.00;;;;;;;-7.00;81.87;99281.98;2089372;83;21100;-74
2021/12/11 03:31:48;;;;;;;67.63;29.53;;;;;;;-6.83;81.59;99294.86;2094932;82;21016;-76
2021/12/11 03:34:51;;;;;;;66.03;30.60;;;;;;;-6.73;81.45;99293.09;2094026;82;21047;-74
2021/12/11 03:37:52;;;;;;;63.63;30.43;;;;;;;-6.80;81.29;99301.15;2089189;82;20961;-72
2021/12/11 03:40:56;;;;;;;72.90;31.73;;;;;;;-6.84;81.53;99306.09;2088375;83;21138;-73
2021/12/11 03:43:58;;;;;;;68.70;31.17;;;;;;;-6.90;81.45;99308.95;2061848;83;21524;-79
2021/12/11 03:47:07;;;;;;;73.33;31.30;;;;;;;-6.99;81.44;99318.45;2077808;83;21068;-72
2021/12/11 03:50:13;;;;;;;76.73;31.47;;;;;;;-7.07;81.67;99327.02;2076814;82;21013;-73
2021/12/11 03:53:16;;;;;;;87.43;34.57;;;;;;;-6.96;82.15;99323.45;2085012;83;21094;-85
2021/12/11 03:56:18;;;;;;;80.30;33.37;;;;;;;-6.77;82.24;99322.09;2099787;82;21449;-72
2021/12/11 03:59:20;;;;;;;82.93;33.37;;;;;;;-6.62;82.02;99332.92;2076882;83;21108;-76
2021/12/11 04:02:27;;;;;;;78.63;32.63;;;;;;;-6.59;81.82;99336.66;2090449;83;20966;-75
2021/12/11 04:05:31;;;;;;;74.27;31.20;;;;;;;-6.50;82.10;99334.50;2093307;83;21012;-76
2021/12/11 04:08:40;;;;;;;82.93;33.60;;;;;;;-6.35;82.33;99338.89;2095875;83;21052;-73
2021/12/11 04:11:40;;;;;;;69.07;31.63;;;;;;;-6.18;82.22;99348.34;2093913;83;21045;-72
2021/12/11 04:14:45;;;;;;;77.40;32.87;;;;;;;-6.16;82.12;99343.94;2092413;83;20992;-76
2021/12/11 04:17:47;;;;;;;81.00;35.53;;;;;;;-6.06;82.29;99348.98;2095442;82;21108;-76
2021/12/11 04:20:49;;;;;;;80.00;35.60;;;;;;;-6.00;82.33;99355.58;2090289;82;21049;-79
2021/12/11 04:23:52;;;;;;;76.80;34.57;;;;;;;-5.91;82.41;99362.37;2071995;82;21014;-76
2021/12/11 04:26:57;;;;;;;76.13;33.37;;;;;;;-5.77;82.69;99364.66;2083022;83;21602;-74
2021/12/11 04:30:02;;;;;;;67.83;31.97;;;;;;;-5.79;82.35;99370.39;2067723;83;21526;-72
2021/12/11 04:33:04;;;;;;;70.70;31.07;;;;;;;-5.82;82.39;99361.05;2097166;82;21017;-75
2021/12/11 04:36:10;;;;;;;67.63;31.13;;;;;;;-5.83;82.56;99370.98;2089185;82;21033;-73
2021/12/11 04:39:17;;;;;;;70.63;30.43;;;;;;;-5.74;82.83;99376.15;2091717;82;21060;-76
2021/12/11 04:42:36;;;;;;;66.23;30.53;;;;;;;-5.61;83.06;99374.55;2091333;83;21060;-73
2021/12/11 04:45:34;;;;;;;66.63;31.43;;;;;;;-5.46;83.21;99377.61;2093662;83;21520;-73
2021/12/11 04:52:00;;;;;;;62.80;29.93;;;;;;;-5.18;83.26;99372.19;2079459;82;21102;-73
2021/12/11 05:01:34;;;;;;;58.83;29.47;;;;;;;-5.20;83.21;99394.74;2082865;83;21053;-76
2021/12/11 05:10:54;;;;;;;63.33;29.87;;;;;;;-4.97;83.74;99409.80;2095053;82;21055;-73
2021/12/11 05:13:44;;;;;;;63.52;29.87;;;;;;;-4.85;83.72;99407.45;2076034;83;21061;-73
2021/12/11 05:16:45;;;;;;;67.42;30.88;;;;;;;-4.77;83.68;99407.86;2068921;82;21115;-74
2021/12/11 05:19:48;;;;;;;67.20;30.50;;;;;;;-4.63;83.86;99406.60;2086027;82;21123;-75
2021/12/11 05:22:50;;;;;;;65.20;29.18;;;;;;;-4.53;83.81;99409.05;2087519;83;21087;-76
2021/12/11 05:25:53;;;;;;;63.33;29.82;;;;;;;-4.36;83.93;99411.12;2090794;83;21008;-75
2021/12/11 05:28:55;;;;;;;58.73;28.47;;;;;;;-4.25;83.87;99417.80;2084689;82;21531;-73
2021/12/11 05:31:57;;;;;;;64.80;30.77;;;;;;;-4.18;83.67;99418.27;2094822;83;21528;-88
2021/12/11 05:34:59;;;;;;;64.75;32.00;;;;;;;-4.18;83.50;99426.87;2068451;83;20996;-73
2021/12/11 05:38:02;;;;;;;60.38;29.63;;;;;;;-4.24;83.37;99431.12;2099741;82;21048;-75
2021/12/11 05:41:05;;;;;;;61.42;30.15;;;;;;;-4.30;83.36;99436.66;2090325;83;21572;-73
2021/12/11 05:44:09;;;;;;;64.15;30.20;;;;;;;-4.37;83.31;99446.53;2075690;83;21049;-75
2021/12/11 05:47:11;;;;;;;64.25;32.05;;;;;;;-4.44;83.44;99440.05;2091392;83;21172;-75
2021/12/11 05:50:18;;;;;;;70.10;33.20;;;;;;;-4.36;83.71;99442.20;2093452;82;21013;-72
2021/12/11 05:53:21;;;;;;;67.70;31.07;;;;;;;-4.27;83.89;99445.55;2095514;82;21039;-79
2021/12/11 05:56:24;;;;;;;68.52;33.38;;;;;;;-4.17;83.92;99451.02;2080190;82;21102;-76
2021/12/11 05:59:27;;;;;;;64.77;31.93;;;;;;;-4.14;83.76;99446.52;2088070;82;21039;-73
2021/12/11 06:02:29;;;;;;;69.45;32.58;;;;;;;-4.14;83.75;99447.80;2095074;82;21673;-74
2021/12/11 06:05:32;;;;;;;67.55;33.45;;;;;;;-4.04;83.93;99450.67;2090055;83;21023;-73
2021/12/11 06:08:33;;;;;;;103.67;47.35;;;;;;;-3.95;83.91;99457.89;2078182;82;21056;-73
2021/12/11 06:11:36;;;;;;;79.07;39.00;;;;;;;-3.87;83.96;99453.56;2084770;82;21051;-73
2021/12/11 06:14:41;;;;;;;93.10;44.65;;;;;;;-3.80;83.95;99465.25;2095799;82;21012;-74
2021/12/11 06:17:46;;;;;;;82.88;39.05;;;;;;;-3.79;83.76;99473.38;2081784;83;21048;-74
2021/12/11 06:20:49;;;;;;;73.72;35.55;;;;;;;-3.77;83.89;99473.27;2091351;83;21076;-73
2021/12/11 06:23:50;;;;;;;72.85;34.48;;;;;;;-3.64;84.10;99481.52;2077249;82;21879;-76
2021/12/11 06:27:02;;;;;;;85.45;40.05;;;;;;;-3.54;84.05;99477.10;2090736;83;21079;-86
2021/12/11 06:30:09;;;;;;;115.57;49.77;;;;;;;-3.48;84.01;99475.43;2088459;83;21426;-73
2021/12/11 06:33:10;;;;;;;103.97;44.38;;;;;;;-3.38;83.98;99485.59;2084218;83;21586;-87
2021/12/11 06:36:14;;;;;;;90.75;42.25;;;;;;;-3.28;84.05;99485.41;2090986;82;21095;-77
2021/12/11 06:39:20;;;;;;;74.60;36.03;;;;;;;-3.25;83.86;99486.52;2084679;82;21106;-91
2021/12/11 06:42:22;;;;;;;105.45;41.20;;;;;;;-3.23;83.66;99487.73;2095257;82;21144;-73
2021/12/11 06:45:26;;;;;;;118.90;42.17;;;;;;;-3.47;82.98;99497.83;2096132;82;21001;-74
2021/12/11 06:48:28;;;;;;;254.60;67.37;;;;;;;-3.62;83.06;99504.32;2075244;82;21544;-75
2021/12/11 06:51:30;;;;;;;71.40;33.63;;;;;;;-3.69;83.16;99510.81;2091183;83;21041;-72
2021/12/11 06:54:32;;;;;;;75.67;36.88;;;;;;;-3.68;83.26;99518.95;2090361;82;21121;-72
2021/12/11 06:57:33;;;;;;;72.53;35.92;;;;;;;-3.64;83.43;99533.86;2088058;82;20998;-71
2021/12/11 07:00:35;;;;;;;93.17;43.83;;;;;;;-3.63;83.46;99540.27;2096682;82;20979;-83
2021/12/11 07:03:40;;;;;;;105.63;41.73;;;;;;;-3.66;83.40;99548.23;2073681;82;21500;-75
2021/12/11 07:06:49;;;;;;;116.50;49.05;;;;;;;-3.71;83.46;99549.42;2080638;82;21489;-76
2021/12/11 07:09:53;;;;;;;126.75;54.40;;;;;;;-3.71;83.62;99558.50;2065146;83;21591;-73
2021/12/11 07:12:55;;;;;;;107.35;43.75;;;;;;;-3.68;83.76;99561.73;2060181;83;21057;-71
2021/12/11 07:15:57;;;;;;;108.72;47.25;;;;;;;-3.57;84.02;99564.17;2086511;83;21120;-75
2021/12/11 07:18:59;;;;;;;127.45;54.38;;;;;;;-3.51;84.00;99573.71;2086310;82;21053;-80
2021/12/11 07:22:01;;;;;;;114.65;51.88;;;;;;;-3.43;83.94;99575.39;2083487;82;21080;-71
2021/12/11 07:25:12;;;;;;;122.45;49.90;;;;;;;-3.35;84.02;99587.91;2090274;82;21052;-72
2021/12/11 07:28:17;;;;;;;97.37;43.28;;;;;;;-3.21;84.18;99589.22;2049146;83;21085;-71
2021/12/11 07:31:21;;;;;;;109.87;47.50;;;;;;;-3.14;83.79;99588.84;2093373;82;21616;-70
2021/12/11 07:34:23;;;;;;;96.15;44.38;;;;;;;-3.13;83.83;99598.28;2087730;82;21020;-75
2021/12/11 07:37:25;;;;;;;89.45;42.40;;;;;;;-3.00;84.06;99603.11;2091852;83;21065;-69
2021/12/11 07:40:32;;;;;;;89.47;42.17;;;;;;;-2.96;83.96;99613.23;2090283;82;22478;-74
2021/12/11 07:43:36;;;;;;;88.00;43.50;;;;;;;-2.82;84.21;99608.46;2087617;83;21096;-74
2021/12/11 07:46:38;;;;;;;91.95;44.20;;;;;;;-2.66;84.22;99606.23;2080455;82;21013;-77
2021/12/11 07:49:39;;;;;;;88.65;42.85;;;;;;;-2.55;84.12;99612.89;2085725;83;21580;-72
2021/12/11 07:52:41;;;;;;;119.53;49.67;;;;;;;-2.41;84.08;99621.95;2063485;83;21099;-74
2021/12/11 07:55:43;;;;;;;91.85;44.73;;;;;;;-2.51;83.56;99630.77;2086979;83;21048;-74
2021/12/11 07:58:52;;;;;;;90.03;41.77;;;;;;;-2.58;83.57;99639.89;2075544;82;21600;-77
2021/12/11 08:01:54;;;;;;;86.37;46.00;;;;;;;-2.64;83.56;99639.45;2077920;83;21571;-75
2021/12/11 08:04:56;;;;;;;88.27;46.75;;;;;;;-2.66;83.76;99643.89;2084591;82;21723;-74
2021/12/11 08:08:02;;;;;;;88.97;44.65;;;;;;;-2.56;84.08;99649.73;2074313;83;21005;-77
2021/12/11 08:11:12;;;;;;;95.15;44.13;;;;;;;-2.41;84.34;99657.03;2082819;82;21006;-79
2021/12/11 08:14:14;;;;;;;93.97;46.33;;;;;;;-2.26;84.32;99661.25;2081523;82;22428;-74
2021/12/11 08:17:19;;;;;;;88.70;43.50;;;;;;;-2.08;84.20;99668.85;2093321;82;21576;-71
2021/12/11 08:20:28;;;;;;;89.35;44.25;;;;;;;-1.97;84.06;99657.73;2070669;83;21057;-81
2021/12/11 08:23:30;;;;;;;87.90;45.20;;;;;;;-1.91;84.01;99655.59;2089838;82;21631;-74
2021/12/11 08:26:33;;;;;;;89.47;45.43;;;;;;;-1.87;83.93;99675.27;2086994;83;20994;-73
2021/12/11 08:29:35;;;;;;;92.78;45.70;;;;;;;-1.83;83.85;99683.25;2080474;83;21543;-84
2021/12/11 08:32:37;;;;;;;105.32;51.55;;;;;;;-1.85;83.64;99687.71;2081785;82;21504;-77
2021/12/11 08:35:39;;;;;;;83.52;43.20;;;;;;;-1.93;83.53;99696.94;2074865;83;21113;-74
2021/12/11 08:38:43;;;;;;;87.42;42.48;;;;;;;-2.01;83.54;99702.61;2085750;82;20993;-77
2021/12/11 08:41:49;;;;;;;84.20;43.60;;;;;;;-1.98;83.89;99708.92;2082221;82;21032;-77
2021/12/11 08:44:59;;;;;;;98.67;47.58;;;;;;;-1.89;84.10;99708.33;2075769;83;21068;-74
2021/12/11 08:48:00;;;;;;;81.32;41.30;;;;;;;-1.74;84.22;99716.11;2087317;83;21057;-79
2021/12/11 08:51:07;;;;;;;91.37;42.70;;;;;;;-1.65;84.07;99718.11;2057872;83;20990;-81
2021/12/11 08:54:10;;;;;;;94.47;43.92;;;;;;;-1.61;83.93;99728.67;2085351;83;21012;-87
2021/12/11 08:57:19;;;;;;;82.25;40.33;;;;;;;-1.61;83.81;99733.87;2096739;83;21037;-76
2021/12/11 09:00:32;;;;;;;77.82;38.35;;;;;;;-1.59;83.74;99747.63;2085851;83;21531;-75
2021/12/11 09:03:57;;;;;;;81.32;39.85;;;;;;;-1.49;84.00;99748.72;2085089;83;21059;-73
2021/12/11 09:07:07;;;;;;;84.03;43.50;;;;;;;-1.33;84.05;99755.05;2076263;83;21057;-73
2021/12/11 09:10:29;;;;;;;86.42;43.85;;;;;;;-1.27;83.70;99754.64;2070681;82;21587;-73
2021/12/11 09:13:39;;;;;;;87.45;44.53;;;;;;;-1.21;83.70;99763.83;2088902;83;21124;-73
2021/12/11 09:17:08;;;;;;;90.53;48.95;;;;;;;-1.16;83.58;99765.19;2077791;82;21662;-74
2021/12/11 09:20:21;;;;;;;86.30;44.23;;;;;;;-1.11;83.56;99771.41;2101407;82;21028;-78
2021/12/11 09:23:28;;;;;;;92.00;46.68;;;;;;;-1.03;83.70;99778.25;2085858;80;21089;-75
2021/12/11 09:26:44;;;;;;;122.55;61.42;;;;;;;-0.98;83.67;99790.51;2087676;82;21012;-78
2021/12/11 09:30:06;;;;;;;98.50;48.38;;;;;;;-0.91;83.50;99793.53;2085059;83;21073;-67
2021/12/11 09:33:13;;;;;;;82.42;44.00;;;;;;;-0.82;83.63;99785.57;2088619;83;21119;-70
2021/12/11 09:36:20;;;;;;;81.80;41.53;;;;;;;-0.75;83.53;99793.36;2063341;83;21604;-71
2021/12/11 09:39:30;;;;;;;88.70;43.55;;;;;;;-0.67;83.64;99798.06;2067011;83;20991;-72
2021/12/11 09:42:31;;;;;;;98.82;45.83;;;;;;;-0.55;83.62;99794.14;2080319;83;21036;-73
2021/12/11 09:45:42;;;;;;;83.90;43.60;;;;;;;-0.51;83.40;99798.23;2077140;83;21040;-77
2021/12/11 09:48:44;;;;;;;;;;;;;;;-0.39;83.43;99800.47;2094294;83;21531;-72
2021/12/11 09:51:50;;;;;;;81.95;42.08;;;;;;;-0.35;83.22;99808.43;2087927;83;20166;-72
2021/12/11 09:55:00;;;;;;;85.47;44.35;;;;;;;-0.26;83.40;99816.92;2074508;83;21080;-72
2021/12/11 09:58:07;;;;;;;91.20;44.88;;;;;;;-0.13;83.23;99822.14;2087818;83;21021;-71
2021/12/11 10:01:14;;;;;;;89.75;48.98;;;;;;;-0.20;82.68;99826.09;2075330;83;21068;-70
2021/12/11 10:04:22;;;;;;;92.45;47.25;;;;;;;-0.24;82.69;99829.39;2090492;83;21068;-70
2021/12/11 10:07:29;;;;;;;118.13;58.17;;;;;;;-0.23;82.76;99830.22;2058562;83;21124;-72
2021/12/11 10:10:30;;;;;;;102.53;49.83;;;;;;;-0.19;83.04;99843.43;2084886;83;21004;-74
2021/12/11 10:13:37;;;;;;;153.95;69.40;;;;;;;-0.13;82.97;99856.05;2074448;82;21069;-74
2021/12/11 10:16:43;;;;;;;132.15;64.55;;;;;;;-0.13;82.89;99864.34;2073728;82;20974;-73
2021/12/11 10:19:45;;;;;;;98.05;50.85;;;;;;;-0.11;82.98;99863.30;2066978;83;21061;-71
2021/12/11 10:22:50;;;;;;;95.25;49.63;;;;;;;-0.02;82.92;99867.88;2096625;82;21099;-75
2021/12/11 10:25:53;;;;;;;103.05;53.63;;;;;;;0.02;82.96;99868.97;2089815;82;21009;-79
2021/12/11 10:28:59;;;;;;;100.00;53.08;;;;;;;0.11;83.05;99876.16;2079474;82;21099;-74
2021/12/11 10:32:10;;;;;;;100.02;52.20;;;;;;;0.20;83.06;99878.98;2086784;82;22243;-75
2021/12/11 10:35:16;;;;;;;104.85;53.38;;;;;;;0.26;82.84;99876.41;2056026;82;21738;-72
2021/12/11 10:38:20;;;;;;;122.60;66.45;;;;;;;0.42;83.74;99880.94;2082404;82;21057;-71
2021/12/11 10:41:29;;;;;;;133.72;70.60;;;;;;;0.74;84.12;99869.97;2093253;83;21497;-78
2021/12/11 10:44:36;;;;;;;123.47;64.70;;;;;;;0.82;83.12;99882.02;2080602;82;21068;-80
2021/12/11 10:47:43;;;;;;;107.67;62.38;;;;;;;0.82;82.71;99881.19;2087813;82;21625;-76
2021/12/11 10:50:51;;;;;;;101.40;57.17;;;;;;;0.80;82.50;99891.73;2090090;83;21013;-69
2021/12/11 10:53:54;;;;;;;125.75;61.05;;;;;;;0.82;82.39;99889.02;2090937;83;21033;-69
2021/12/11 10:56:56;;;;;;;116.47;57.27;;;;;;;0.81;82.10;99897.78;2091132;83;21095;-74
2021/12/11 11:00:00;;;;;;;100.27;49.50;;;;;;;0.77;81.98;99894.56;2090082;83;20953;-70
2021/12/11 11:03:06;;;;;;;93.10;49.63;;;;;;;0.78;81.99;99895.39;2086807;82;21038;-77
2021/12/11 11:06:09;;;;;;;82.27;44.38;;;;;;;0.84;82.11;99896.25;2093824;82;21604;-70
2021/12/11 11:09:11;;;;;;;112.55;54.10;;;;;;;0.86;81.92;99900.91;2090601;82;21587;-71
2021/12/11 11:12:18;;;;;;;104.00;52.90;;;;;;;0.87;81.89;99903.42;2081514;83;21012;-70
2021/12/11 11:15:26;;;;;;;158.50;73.57;;;;;;;0.94;81.97;99901.67;2093943;83;21123;-69
2021/12/11 11:18:29;;;;;;;156.07;72.90;;;;;;;1.05;82.01;99897.81;2084577;83;21048;-83
2021/12/11 11:21:42;;;;;;;164.82;76.10;;;;;;;1.02;81.57;99905.39;2096214;83;21009;-67
2021/12/11 11:25:01;;;;;;;133.75;63.00;;;;;;;1.06;81.69;99912.53;2091340;82;21068;-70
2021/12/11 11:28:08;;;;;;;101.80;54.00;;;;;;;1.08;81.75;99925.02;2079429;82;21512;-67
2021/12/11 11:31:18;;;;;;;95.92;54.33;;;;;;;1.13;81.80;99917.69;2084094;83;21054;-68
2021/12/11 11:34:23;;;;;;;104.75;53.40;;;;;;;1.18;81.76;99923.87;2090399;82;21669;-67
2021/12/11 11:37:26;;;;;;;98.25;51.77;;;;;;;1.23;81.59;99929.12;2083986;81;21542;-67
2021/12/11 11:40:33;;;;;;;100.27;51.70;;;;;;;1.30;81.75;99942.13;2077621;82;21107;-70
2021/12/11 11:43:36;;;;;;;93.60;51.48;;;;;;;1.34;81.43;99947.47;2088555;83;21006;-68
2021/12/11 11:46:41;;;;;;;97.60;53.63;;;;;;;1.33;81.44;99957.58;2087593;82;21087;-69
2021/12/11 11:49:44;;;;;;;85.80;48.85;;;;;;;1.29;81.32;99957.91;2089523;83;21104;-68
2021/12/11 11:52:47;;;;;;;88.50;47.43;;;;;;;1.31;81.41;99973.02;2089044;82;21028;-68
2021/12/11 11:55:57;;;;;;;86.75;46.00;;;;;;;1.28;81.30;99976.68;2084710;81;20989;-67
2021/12/11 11:59:03;;;;;;;86.12;45.75;;;;;;;1.27;81.14;99982.04;2085555;83;21037;-67
2021/12/11 12:02:13;;;;;;;87.35;46.40;;;;;;;1.16;81.10;99989.34;2086365;83;21116;-70
2021/12/11 12:05:15;;;;;;;91.20;47.07;;;;;;;1.17;81.33;99992.30;2062583;83;21594;-68
2021/12/11 12:08:18;;;;;;;89.97;47.27;;;;;;;1.16;81.33;99990.64;2086139;82;21064;-69
2021/12/11 12:11:24;;;;;;;83.27;43.00;;;;;;;1.19;81.40;99989.11;2057847;83;21720;-74
2021/12/11 12:14:34;;;;;;;80.57;42.60;;;;;;;1.20;81.26;99990.77;2088759;82;21537;-68
2021/12/11 12:17:36;;;;;;;80.38;42.45;;;;;;;1.16;81.12;99989.34;2082091;83;21096;-68
2021/12/11 12:20:40;;;;;;;83.55;44.95;;;;;;;1.13;81.16;99989.56;2087092;83;21064;-67
2021/12/11 12:23:44;;;;;;;91.08;50.52;;;;;;;1.10;81.04;99993.70;2092143;83;21037;-70
2021/12/11 12:26:47;;;;;;;89.37;48.08;;;;;;;1.07;81.02;100001.28;2065547;83;21474;-77
2021/12/11 12:29:51;;;;;;;90.90;49.88;;;;;;;1.01;80.85;100012.63;2087969;82;21057;-68
2021/12/11 12:32:55;;;;;;;89.22;51.37;;;;;;;0.99;80.89;100025.81;2069053;83;21115;-69
2021/12/11 12:35:59;;;;;;;95.37;51.90;;;;;;;0.95;80.90;100021.73;2095560;83;21091;-73
2021/12/11 12:39:02;;;;;;;101.05;51.88;;;;;;;0.93;80.85;100021.47;2088263;82;21067;-68
2021/12/11 12:42:18;;;;;;;96.32;52.62;;;;;;;0.88;80.76;100025.72;2082136;82;21624;-68
2021/12/11 12:45:33;;;;;;;99.95;53.87;;;;;;;0.77;80.63;100020.41;2060976;82;21113;-68
2021/12/11 12:48:37;;;;;;;107.72;56.50;;;;;;;0.67;80.59;100033.25;2094556;82;21107;-73
2021/12/11 12:51:41;;;;;;;95.60;53.10;;;;;;;0.57;80.68;100043.51;2078352;83;22076;-70
2021/12/11 12:54:47;;;;;;;106.00;55.05;;;;;;;0.51;80.72;100050.45;2063131;83;21063;-70
2021/12/11 12:57:53;;;;;;;108.25;60.38;;;;;;;0.51;80.91;100055.69;2076979;82;21596;-72
2021/12/11 13:01:03;;;;;;;106.72;61.00;;;;;;;0.53;80.81;100049.03;2083142;83;21033;-71
2021/12/11 13:04:07;;;;;;;116.03;65.78;;;;;;;0.54;80.84;100045.50;2083862;82;21100;-81
2021/12/11 13:07:13;;;;;;;115.35;65.15;;;;;;;0.51;80.81;100049.59;2079144;83;21081;-69
2021/12/11 13:10:23;;;;;;;120.33;66.92;;;;;;;0.46;80.69;100054.32;2093136;82;21375;-73
2021/12/11 13:13:29;;;;;;;113.90;61.73;;;;;;;0.46;80.89;100057.77;2083494;83;21112;-72
2021/12/11 13:16:36;;;;;;;111.95;62.38;;;;;;;0.44;80.80;100060.94;2082924;83;21065;-71
2021/12/11 13:19:44;;;;;;;121.67;64.85;;;;;;;0.35;80.62;100069.39;2072539;82;21100;-71
2021/12/11 13:22:48;;;;;;;125.58;64.95;;;;;;;0.35;80.85;100074.14;2077003;83;21566;-72
2021/12/11 13:25:56;;;;;;;119.87;62.27;;;;;;;0.35;80.90;100062.39;2074703;83;21654;-72
2021/12/11 13:29:06;;;;;;;121.85;63.23;;;;;;;0.29;80.89;100062.81;2086476;82;21042;-75
2021/12/11 13:32:16;;;;;;;116.05;61.90;;;;;;;0.26;80.98;100073.45;2056644;83;21132;-91
2021/12/11 13:35:22;;;;;;;130.43;64.53;;;;;;;0.22;80.94;100078.49;2087559;83;21041;-76
2021/12/11 13:38:27;;;;;;;123.92;65.08;;;;;;;0.25;81.11;100084.81;2087527;83;21010;-72
2021/12/11 13:41:34;;;;;;;137.52;69.20;;;;;;;0.17;80.88;100084.03;2090499;82;21036;-74
2021/12/11 13:44:41;;;;;;;150.47;74.80;;;;;;;0.09;80.93;100085.01;2082659;82;21572;-74
2021/12/11 13:47:44;;;;;;;152.47;75.03;;;;;;;0.03;80.93;100095.84;2080059;82;21692;-71
2021/12/11 13:51:07;;;;;;;163.45;83.40;;;;;;;0.01;81.03;100088.59;2067600;83;21014;-74
2021/12/11 13:54:11;;;;;;;155.12;80.22;;;;;;;0.02;81.17;100096.77;2084584;83;22322;-70
2021/12/11 13:57:24;;;;;;;142.07;73.92;;;;;;;0.00;81.12;100103.88;2081793;82;21044;-71
2021/12/11 14:00:29;;;;;;;141.15;72.75;;;;;;;0.00;81.18;100106.48;2069639;83;21032;-71
2021/12/11 14:03:31;;;;;;;134.55;69.10;;;;;;;-0.02;81.21;100106.58;2095976;83;21075;-73
2021/12/11 14:06:34;;;;;;;140.68;71.25;;;;;;;-0.02;81.22;100112.27;2071200;83;21053;-75
2021/12/11 14:09:40;;;;;;;150.10;81.15;;;;;;;-0.08;81.09;100113.50;2079995;83;21118;-72
2021/12/11 14:12:41;;;;;;;160.00;79.60;;;;;;;-0.08;81.31;100129.63;2080456;83;21552;-73
2021/12/11 14:15:47;;;;;;;159.57;84.72;;;;;;;-0.14;81.23;100127.38;2085671;82;21031;-75
2021/12/11 14:18:51;;;;;;;182.40;92.65;;;;;;;-0.19;81.36;100138.59;2090308;83;21099;-72
2021/12/11 14:21:54;;;;;;;186.12;93.07;;;;;;;-0.23;81.39;100139.23;2086003;83;22496;-74
2021/12/11 14:24:57;;;;;;;169.20;87.67;;;;;;;-0.29;81.31;100148.75;2080151;81;21104;-76
2021/12/11 14:28:03;;;;;;;168.95;88.47;;;;;;;-0.34;81.42;100145.16;2079256;83;22907;-73
2021/12/11 14:31:10;;;;;;;175.87;88.52;;;;;;;-0.36;81.54;100154.00;2083485;82;22280;-72